Time;durP1;ratioP1;P1;durP2;ratioP2;P2;SDS_P1;SDS_P2;PMS_P1;PMS_P2;Temp;Humidity;BMP_temperature;BMP_pressure;BME280_temperature;BME280_humidity;BME280_pressure;Samples;Min_cycle;Max_cycle;Signal;HPM_P1;HPM_P2
2022/11/02 00:01:23;;;;;;;34.15;17.80;;;;;;;8.88;100.00;98500.48;1744318;81;21079;-78
2022/11/02 00:03:49;;;;;;;36.63;17.67;;;;;;;8.91;100.00;98498.63;1723309;82;21080;-78
2022/11/02 00:06:15;;;;;;;33.00;18.52;;;;;;;8.96;100.00;98506.77;1738805;82;20905;-78
2022/11/02 00:08:41;;;;;;;32.88;19.45;;;;;;;9.00;100.00;98504.66;1711980;83;20984;-80
2022/11/02 00:11:07;;;;;;;31.52;17.75;;;;;;;9.04;100.00;98509.81;1722037;82;21122;-81
2022/11/02 00:13:33;;;;;;;34.60;18.90;;;;;;;9.05;100.00;98504.68;1700866;82;21014;-81
2022/11/02 00:16:04;;;;;;;35.35;21.00;;;;;;;9.02;100.00;98502.50;1708401;82;20895;-78
2022/11/02 00:18:31;;;;;;;35.85;20.15;;;;;;;9.02;100.00;98505.75;1707579;83;20998;-78
2022/11/02 00:20:57;;;;;;;40.28;21.62;;;;;;;9.01;100.00;98501.41;1695897;84;21037;-78
2022/11/02 00:23:23;;;;;;;31.33;19.07;;;;;;;8.97;100.00;98495.72;1708020;84;22213;-81
2022/11/02 00:25:49;;;;;;;37.60;19.87;;;;;;;8.95;100.00;98496.49;1708121;84;20855;-81
2022/11/02 00:28:15;;;;;;;30.62;19.62;;;;;;;8.94;100.00;98494.87;1707930;83;21026;-80
2022/11/02 00:30:42;;;;;;;30.60;19.02;;;;;;;8.95;100.00;98489.73;1704651;84;20876;-78
2022/11/02 00:33:07;;;;;;;31.82;17.42;;;;;;;8.98;100.00;98494.64;1691635;84;21453;-81
2022/11/02 00:35:34;;;;;;;35.50;18.20;;;;;;;8.99;100.00;98491.41;1704675;84;21149;-78
2022/11/02 00:38:00;;;;;;;36.85;17.90;;;;;;;8.99;100.00;98494.92;1713777;82;21440;-79
2022/11/02 00:40:25;;;;;;;34.35;18.65;;;;;;;9.01;100.00;98494.13;1704070;84;20885;-78
2022/11/02 00:42:51;;;;;;;32.42;17.70;;;;;;;9.02;100.00;98488.98;1714098;83;20897;-81
2022/11/02 00:45:17;;;;;;;36.85;18.73;;;;;;;9.02;100.00;98488.98;1714770;82;21571;-78
2022/11/02 00:47:43;;;;;;;31.68;18.92;;;;;;;9.00;100.00;98491.14;1715422;82;21078;-78
2022/11/02 00:50:09;;;;;;;38.58;20.17;;;;;;;9.01;100.00;98496.82;1714420;83;20969;-81
2022/11/02 00:52:39;;;;;;;30.90;18.15;;;;;;;9.02;100.00;98489.53;1703787;84;20890;-78
2022/11/02 00:55:07;;;;;;;31.20;17.70;;;;;;;9.00;100.00;98493.03;1688626;82;20951;-79
2022/11/02 00:57:34;;;;;;;29.73;17.83;;;;;;;9.00;100.00;98493.03;1714248;83;21004;-78
2022/11/02 01:00:00;;;;;;;30.43;17.20;;;;;;;8.97;100.00;98488.97;1711345;83;21142;-78
2022/11/02 01:02:26;;;;;;;36.90;18.60;;;;;;;8.96;100.00;98488.66;1653125;85;20990;-78
2022/11/02 01:04:52;;;;;;;32.50;17.30;;;;;;;8.96;100.00;98485.14;1714419;82;21017;-78
2022/11/02 01:07:18;;;;;;;78.12;32.45;;;;;;;8.93;100.00;98490.53;1722007;82;20976;-81
2022/11/02 01:09:44;;;;;;;44.38;23.30;;;;;;;8.94;100.00;98481.35;1722305;82;21536;-78
2022/11/02 01:12:10;;;;;;;39.60;22.13;;;;;;;8.92;100.00;98479.98;1711268;83;21182;-80
2022/11/02 01:14:36;;;;;;;35.63;19.15;;;;;;;8.93;100.00;98483.78;1722146;83;21004;-81
2022/11/02 01:17:03;;;;;;;32.95;19.75;;;;;;;8.93;100.00;98487.02;1777338;79;20941;-81
2022/11/02 01:19:29;;;;;;;31.87;19.23;;;;;;;8.94;100.00;98490.00;1777158;80;21519;-78
2022/11/02 01:21:55;;;;;;;33.23;19.15;;;;;;;8.95;100.00;98485.69;1777345;80;20945;-78
2022/11/02 01:24:21;;;;;;;31.05;17.92;;;;;;;8.94;100.00;98490.81;1777309;80;21137;-81
2022/11/02 01:26:51;;;;;;;29.90;17.57;;;;;;;8.95;100.00;98491.63;1777210;80;20865;-80
2022/11/02 01:29:17;;;;;;;30.57;19.70;;;;;;;8.93;100.00;98488.38;1777232;80;20977;-77
2022/11/02 01:31:43;;;;;;;32.78;19.32;;;;;;;8.90;100.00;98486.20;1749781;80;20962;-78
2022/11/02 01:34:12;;;;;;;29.72;17.98;;;;;;;8.92;100.00;98485.39;1725757;82;21055;-78
2022/11/02 01:36:38;;;;;;;;;;;;;;;8.90;100.00;98493.77;1728608;83;21541;-78
2022/11/02 01:39:04;;;;;;;26.48;16.77;;;;;;;8.91;100.00;98483.23;1725708;81;20292;-80
2022/11/02 01:41:29;;;;;;;34.40;18.70;;;;;;;8.92;100.00;98488.09;1725789;83;20861;-81
2022/11/02 01:43:57;;;;;;;33.02;19.98;;;;;;;8.92;100.00;98486.20;1725894;83;20921;-78
2022/11/02 01:46:29;;;;;;;33.27;19.73;;;;;;;8.97;100.00;98485.42;1726176;82;21001;-78
2022/11/02 01:49:06;;;;;;;33.85;20.43;;;;;;;8.98;100.00;98489.23;1723213;83;21140;-78
2022/11/02 01:52:08;;;;;;;34.03;20.62;;;;;;;8.98;100.00;98496.00;1702313;82;21032;-78
2022/11/02 01:54:45;;;;;;;34.60;19.87;;;;;;;8.96;100.00;98488.66;1720250;81;21398;-78
2022/11/02 01:57:13;;;;;;;35.60;19.55;;;;;;;9.00;100.00;98490.33;1719385;81;21077;-78
2022/11/02 01:59:51;;;;;;;32.17;19.70;;;;;;;9.00;100.00;98487.62;1700162;82;21064;-81
2022/11/02 02:02:20;;;;;;;28.40;18.52;;;;;;;9.00;100.00;98482.22;1720715;82;21061;-80
2022/11/02 02:04:48;;;;;;;;;;;;;;;8.99;100.00;98487.35;1689986;82;21567;-81
2022/11/02 02:07:14;;;;;;;38.13;18.57;;;;;;;8.98;100.00;98490.59;1707463;82;20924;-78
2022/11/02 02:09:40;;;;;;;34.98;20.08;;;;;;;8.97;100.00;98489.47;1706272;84;20867;-81
2022/11/02 02:12:06;;;;;;;31.30;20.45;;;;;;;8.98;100.00;98485.19;1706287;84;21581;-81
2022/11/02 02:14:32;;;;;;;32.65;19.35;;;;;;;9.01;100.00;98492.77;1704851;83;22048;-78
2022/11/02 02:17:18;;;;;;;31.65;19.12;;;;;;;9.07;100.00;98496.88;1705203;83;20871;-78
2022/11/02 02:20:05;;;;;;;38.53;19.82;;;;;;;9.07;100.00;98497.69;1705341;83;21077;-80
2022/11/02 02:23:03;;;;;;;29.37;18.75;;;;;;;9.08;100.00;98496.61;1705103;83;21065;-80
2022/11/02 02:26:22;;;;;;;28.97;17.57;;;;;;;9.14;100.00;98496.09;1706542;84;21049;-78
2022/11/02 02:29:06;;;;;;;;;;;;;;;9.14;100.00;98496.09;1709622;83;21634;-79
2022/11/02 02:31:39;;;;;;;33.90;17.65;;;;;;;9.13;100.00;98498.53;1701837;84;20567;-81
2022/11/02 02:34:20;;;;;;;31.05;17.57;;;;;;;9.12;100.00;98499.06;1691816;84;21155;-78
2022/11/02 02:36:57;;;;;;;27.10;17.12;;;;;;;9.12;100.00;98502.30;1706862;84;21020;-78
2022/11/02 02:39:37;;;;;;;32.95;18.40;;;;;;;9.13;100.00;98497.17;1698108;84;21097;-81
2022/11/02 02:42:24;;;;;;;27.70;17.52;;;;;;;9.14;100.00;98503.67;1681491;82;21097;-78
2022/11/02 02:45:18;;;;;;;43.13;23.95;;;;;;;9.18;100.00;98500.74;1695535;84;21548;-78
2022/11/02 02:47:48;;;;;;;38.70;20.72;;;;;;;9.20;100.00;98497.23;1703138;83;21005;-81
2022/11/02 02:50:21;;;;;;;32.20;18.10;;;;;;;9.23;100.00;98496.73;1678692;83;21498;-78
2022/11/02 02:52:48;;;;;;;31.25;17.45;;;;;;;9.23;100.00;98495.39;1677931;83;21508;-81
2022/11/02 02:55:20;;;;;;;28.85;17.10;;;;;;;9.22;100.00;98504.55;1685525;83;39834;-81
2022/11/02 02:57:46;;;;;;;35.60;18.15;;;;;;;9.23;100.00;98511.61;1647604;86;21457;-78
2022/11/02 03:00:16;;;;;;;34.45;18.00;;;;;;;9.26;100.00;98514.33;1701299;83;20964;-81
2022/11/02 03:02:41;;;;;;;37.28;20.55;;;;;;;9.25;100.00;98501.88;1673966;83;21107;-79
2022/11/02 03:05:23;;;;;;;32.38;19.02;;;;;;;9.25;100.00;98510.81;1695014;84;20901;-80
2022/11/02 03:07:49;;;;;;;39.98;23.55;;;;;;;9.26;100.00;98506.21;1692166;84;21195;-78
2022/11/02 03:10:23;;;;;;;53.75;26.07;;;;;;;9.24;100.00;98502.42;1695960;84;20928;-81
2022/11/02 03:13:19;;;;;;;30.55;18.02;;;;;;;9.24;100.00;98509.72;1668113;84;21150;-78
2022/11/02 03:15:58;;;;;;;33.13;20.85;;;;;;;9.22;100.00;98514.55;1719703;83;21071;-78
2022/11/02 03:18:35;;;;;;;33.08;19.05;;;;;;;9.20;100.00;98515.35;1723201;82;21047;-81
2022/11/02 03:21:31;;;;;;;30.75;18.00;;;;;;;9.20;100.00;98508.05;1723484;83;21153;-81
2022/11/02 03:24:07;;;;;;;34.63;18.55;;;;;;;9.20;100.00;98508.05;1676005;85;21014;-78
2022/11/02 03:26:50;;;;;;;60.73;25.02;;;;;;;9.19;100.00;98506.97;1679515;85;21100;-78
2022/11/02 03:29:26;;;;;;;38.88;18.67;;;;;;;9.20;100.00;98505.89;1704287;83;21032;-78
2022/11/02 03:32:01;;;;;;;42.83;24.75;;;;;;;9.21;100.00;98515.09;1723849;83;21119;-81
2022/11/02 03:34:47;;;;;;;38.75;19.57;;;;;;;9.22;100.00;98509.95;1724612;82;21111;-78
2022/11/02 03:37:29;;;;;;;28.70;18.57;;;;;;;9.24;100.00;98524.05;1724524;83;21465;-78
2022/11/02 03:40:13;;;;;;;29.72;17.32;;;;;;;9.25;100.00;98514.05;1725175;83;21114;-81
2022/11/02 03:42:39;;;;;;;30.60;16.90;;;;;;;9.27;100.00;98524.06;1724248;82;21064;-78
2022/11/02 03:45:21;;;;;;;35.10;20.08;;;;;;;9.28;100.00;98522.98;1724560;83;21004;-78
2022/11/02 03:47:51;;;;;;;33.08;17.15;;;;;;;9.31;100.00;98517.05;1725040;82;21141;-81
2022/11/02 03:50:20;;;;;;;27.42;17.85;;;;;;;9.33;100.00;98520.33;1725125;82;21423;-81
2022/11/02 03:52:47;;;;;;;35.95;19.65;;;;;;;9.34;100.00;98517.91;1724474;83;21541;-78
2022/11/02 03:55:19;;;;;;;28.40;17.12;;;;;;;9.37;100.00;98529.55;1724425;82;21028;-81
2022/11/02 03:57:48;;;;;;;31.50;19.35;;;;;;;9.39;100.00;98520.63;1724929;82;21131;-78
2022/11/02 04:00:18;;;;;;;34.53;21.23;;;;;;;9.44;100.00;98525.27;1725150;83;21233;-78
2022/11/02 04:02:49;;;;;;;32.67;20.15;;;;;;;9.43;100.00;98524.45;1724386;82;21130;-78
2022/11/02 04:05:15;;;;;;;36.20;22.85;;;;;;;9.44;100.00;98526.08;1701970;83;21611;-78
2022/11/02 04:10:28;;;;;;;98.33;35.88;;;;;;;9.45;100.00;98530.95;1725202;83;20997;-78
2022/11/02 04:15:38;;;;;;;42.58;20.90;;;;;;;9.46;100.00;98529.34;1775761;80;21099;-78
2022/11/02 04:20:49;;;;;;;40.48;18.73;;;;;;;9.46;100.00;98535.28;1776409;80;21019;-78
2022/11/02 04:26:00;;;;;;;25.23;15.50;;;;;;;9.51;100.00;98544.80;1775862;80;21063;-81
2022/11/02 04:28:26;;;;;;;29.55;17.82;;;;;;;9.52;100.00;98542.38;1776375;80;20861;-78
2022/11/02 04:30:52;;;;;;;29.35;15.40;;;;;;;9.53;100.00;98539.94;1767047;80;20929;-78
2022/11/02 04:33:33;;;;;;;24.27;15.75;;;;;;;9.55;100.00;98542.66;1724423;83;20882;-81
2022/11/02 04:36:04;;;;;;;22.07;14.83;;;;;;;9.55;100.00;98545.90;1724556;82;21512;-81
2022/11/02 04:38:39;;;;;;;29.05;16.07;;;;;;;9.55;100.00;98537.78;1725027;82;21914;-78
2022/11/02 04:43:59;;;;;;;24.52;15.23;;;;;;;9.47;100.00;98532.86;1724283;83;21119;-81
2022/11/02 04:46:27;;;;;;;26.87;15.38;;;;;;;9.44;100.00;98541.50;1724497;82;21076;-81
2022/11/02 04:48:53;;;;;;;26.47;15.93;;;;;;;9.40;100.00;98543.08;1725208;82;20989;-78
2022/11/02 04:51:20;;;;;;;32.30;16.75;;;;;;;9.34;100.00;98538.19;1724966;83;21139;-81
2022/11/02 04:53:47;;;;;;;31.57;18.27;;;;;;;9.27;100.00;98535.70;1724194;83;21116;-78
2022/11/02 04:56:14;;;;;;;34.67;19.50;;;;;;;9.22;100.00;98535.64;1724763;83;21104;-81
2022/11/02 04:58:40;;;;;;;40.95;22.70;;;;;;;9.13;100.00;98538.54;1724736;83;21441;-78
2022/11/02 05:01:13;;;;;;;44.38;25.10;;;;;;;9.07;100.00;98538.78;1724958;83;20985;-80
2022/11/02 05:03:39;;;;;;;41.45;24.07;;;;;;;9.01;100.00;98534.67;1724312;82;21092;-80
2022/11/02 05:06:05;;;;;;;41.20;23.75;;;;;;;8.95;100.00;98537.03;1724948;83;20977;-80
2022/11/02 05:08:31;;;;;;;45.73;24.12;;;;;;;8.90;100.00;98535.66;1724963;83;21484;-81
2022/11/02 05:10:57;;;;;;;33.30;20.95;;;;;;;8.86;100.00;98541.28;1724956;83;20949;-78
2022/11/02 05:13:24;;;;;;;51.95;20.90;;;;;;;8.80;100.00;98542.29;1721769;82;20996;-78
2022/11/02 05:15:50;;;;;;;32.75;19.00;;;;;;;8.77;100.00;98550.92;1690041;83;21449;-78
2022/11/02 05:18:16;;;;;;;33.92;20.70;;;;;;;8.70;100.00;98546.25;1712546;81;20850;-80
2022/11/02 05:20:42;;;;;;;33.15;18.50;;;;;;;8.62;100.00;98546.16;1702881;84;20917;-78
2022/11/02 05:23:08;;;;;;;29.87;17.55;;;;;;;8.59;100.00;98549.38;1689122;83;21013;-78
2022/11/02 05:25:34;;;;;;;35.70;19.42;;;;;;;8.56;100.00;98548.55;1703198;83;21052;-78
2022/11/02 05:28:00;;;;;;;33.10;17.32;;;;;;;8.55;100.00;98552.86;1713095;82;21110;-78
2022/11/02 05:30:26;;;;;;;33.45;17.82;;;;;;;8.52;100.00;98552.81;1713294;82;20890;-78
2022/11/02 05:32:56;;;;;;;33.13;17.73;;;;;;;8.51;100.00;98554.42;1729088;82;20929;-81
2022/11/02 05:35:22;;;;;;;29.02;17.98;;;;;;;8.49;100.00;98557.38;1706977;82;20986;-78
2022/11/02 05:37:48;;;;;;;34.92;21.48;;;;;;;8.47;100.00;98558.17;1729642;81;21491;-81
2022/11/02 05:40:14;;;;;;;45.55;23.62;;;;;;;8.42;100.00;98561.62;1707169;82;22338;-81
2022/11/02 05:42:40;;;;;;;42.60;22.90;;;;;;;8.42;100.00;98562.16;1728789;82;20942;-78
2022/11/02 05:45:06;;;;;;;35.63;18.98;;;;;;;8.44;100.00;98562.17;1729550;82;20918;-78
2022/11/02 05:47:33;;;;;;;33.20;17.48;;;;;;;8.47;100.00;98562.23;1713617;82;21006;-78
2022/11/02 05:49:59;;;;;;;30.57;17.25;;;;;;;8.50;100.00;98562.25;1707244;83;21065;-78
2022/11/02 05:52:25;;;;;;;26.87;18.70;;;;;;;8.44;100.00;98554.61;1706461;84;21034;-78
2022/11/02 05:54:51;;;;;;;32.58;16.73;;;;;;;8.47;100.00;98564.39;1706298;84;20900;-80
2022/11/02 05:57:17;;;;;;;29.90;17.77;;;;;;;8.44;100.00;98556.77;1706992;84;20918;-78
2022/11/02 05:59:43;;;;;;;39.00;19.73;;;;;;;8.42;100.00;98562.97;1706078;84;20993;-78
2022/11/02 06:02:09;;;;;;;29.45;19.02;;;;;;;8.35;100.00;98568.27;1694857;82;20886;-78
2022/11/02 06:04:35;;;;;;;28.02;17.67;;;;;;;8.34;100.00;98568.78;1702698;82;21884;-78
2022/11/02 06:07:01;;;;;;;31.17;17.12;;;;;;;8.34;100.00;98569.31;1715145;82;20846;-78
2022/11/02 06:09:27;;;;;;;27.58;15.75;;;;;;;8.34;100.00;98571.48;1736329;82;20863;-79
2022/11/02 06:11:54;;;;;;;30.05;16.23;;;;;;;8.36;100.00;98565.86;1710518;82;20882;-78
2022/11/02 06:14:20;;;;;;;37.48;21.07;;;;;;;8.37;100.00;98571.53;1663498;84;21106;-80
2022/11/02 06:16:46;;;;;;;39.95;21.65;;;;;;;8.43;100.00;98581.34;1678444;85;21791;-81
2022/11/02 06:19:12;;;;;;;30.57;19.48;;;;;;;8.51;100.00;98574.67;1705864;84;20958;-81
2022/11/02 06:21:39;;;;;;;29.12;16.52;;;;;;;8.61;100.00;98576.14;1705990;84;21124;-81
2022/11/02 06:24:06;;;;;;;34.55;19.02;;;;;;;8.68;100.00;98583.52;1705838;84;21085;-79
2022/11/02 06:26:31;;;;;;;42.13;19.87;;;;;;;8.78;100.00;98583.62;1706730;84;21481;-78
2022/11/02 06:28:58;;;;;;;28.65;17.95;;;;;;;8.87;100.00;98583.98;1706848;84;21067;-81
2022/11/02 06:31:24;;;;;;;29.80;16.27;;;;;;;8.93;100.00;98581.62;1694970;83;21042;-78
2022/11/02 06:33:50;;;;;;;26.37;18.02;;;;;;;8.97;100.00;98586.27;1685854;84;21505;-81
2022/11/02 06:36:16;;;;;;;26.95;16.87;;;;;;;9.01;100.00;98576.56;1743386;81;20940;-78
2022/11/02 06:38:43;;;;;;;27.50;16.40;;;;;;;9.09;100.00;98577.99;1724691;81;20980;-78
2022/11/02 06:41:09;;;;;;;26.73;16.35;;;;;;;9.16;100.00;98579.95;1724520;82;21152;-81
2022/11/02 06:43:37;;;;;;;34.43;17.17;;;;;;;9.29;100.00;98581.41;1724661;82;20993;-78
2022/11/02 06:46:03;;;;;;;29.82;17.02;;;;;;;9.35;100.00;98575.52;1712081;83;21399;-80
2022/11/02 06:48:28;;;;;;;29.72;17.57;;;;;;;9.39;100.00;98573.91;1670282;83;21148;-77
2022/11/02 06:50:56;;;;;;;27.15;17.37;;;;;;;9.36;100.00;98574.44;1688364;83;20966;-81
2022/11/02 06:53:22;;;;;;;35.45;15.45;;;;;;;9.32;100.00;98578.20;1698236;83;21138;-78
2022/11/02 06:55:55;;;;;;;19.92;12.33;;;;;;;9.35;100.00;98583.63;1715962;82;20891;-81
2022/11/02 06:58:22;;;;;;;25.88;15.68;;;;;;;9.32;100.00;98580.91;1711199;82;21074;-78
2022/11/02 07:00:48;;;;;;;20.82;11.93;;;;;;;9.39;100.00;98579.31;1692422;83;21474;-81
2022/11/02 07:03:14;;;;;;;25.23;13.45;;;;;;;9.42;100.00;98577.47;1707775;82;22180;-81
2022/11/02 07:05:40;;;;;;;18.65;11.90;;;;;;;9.51;100.00;98584.03;1688661;84;21153;-78
2022/11/02 07:08:06;;;;;;;20.50;10.93;;;;;;;9.63;100.00;98579.23;1706434;82;20945;-78
2022/11/02 07:10:34;;;;;;;22.13;11.75;;;;;;;9.76;100.00;98586.92;1711904;82;20929;-78
2022/11/02 07:12:59;;;;;;;29.18;12.53;;;;;;;9.93;100.00;98580.53;1700333;84;21044;-78
2022/11/02 07:15:25;;;;;;;19.10;12.10;;;;;;;10.07;100.00;98574.91;1704607;84;20953;-78
2022/11/02 07:17:52;;;;;;;21.73;11.70;;;;;;;10.16;100.00;98577.39;1697418;83;21627;-81
2022/11/02 07:20:18;;;;;;;21.15;12.43;;;;;;;10.21;100.00;98581.48;1702161;82;21437;-78
2022/11/02 07:22:58;;;;;;;18.05;12.00;;;;;;;10.22;100.00;98580.95;1694430;82;21093;-78
2022/11/02 07:25:26;;;;;;;26.45;12.18;;;;;;;10.26;100.00;98583.45;1692970;82;21084;-80
2022/11/02 07:27:52;;;;;;;25.45;13.98;;;;;;;10.30;100.00;98584.55;1695418;82;21033;-78
2022/11/02 07:30:19;;;;;;;23.77;12.80;;;;;;;10.35;100.00;98592.70;1692661;82;21128;-81
2022/11/02 07:32:45;;;;;;;25.75;17.57;;;;;;;10.37;100.00;98588.64;1687551;82;21120;-81
2022/11/02 07:35:14;;;;;;;44.35;25.77;;;;;;;10.40;100.00;98584.58;1696658;82;21057;-82
2022/11/02 07:37:39;;;;;;;30.52;16.40;;;;;;;10.41;100.00;98582.14;1691829;83;21541;-78
2022/11/02 07:40:07;;;;;;;44.95;26.60;;;;;;;10.50;100.00;98583.80;1697097;84;20997;-81
2022/11/02 07:42:33;;;;;;;28.52;16.93;;;;;;;10.50;100.00;98579.20;1693909;82;21129;-81
2022/11/02 07:44:58;;;;;;;33.25;16.60;;;;;;;10.46;100.00;98578.11;1726309;81;20937;-81
2022/11/02 07:47:25;;;;;;;38.80;23.47;;;;;;;10.42;100.00;98577.84;1693894;81;20847;-81
2022/11/02 07:49:51;;;;;;;61.25;44.65;;;;;;;10.41;100.00;98576.72;1695820;84;21420;-81
2022/11/02 07:52:17;;;;;;;33.67;24.55;;;;;;;10.41;100.00;98577.53;1690314;84;20926;-81
2022/11/02 07:54:42;;;;;;;28.77;16.77;;;;;;;10.42;100.00;98577.84;1694332;84;21139;-81
2022/11/02 07:57:08;;;;;;;22.27;14.73;;;;;;;10.48;100.00;98576.48;1689748;82;20890;-79
2022/11/02 07:59:35;;;;;;;24.87;14.40;;;;;;;10.52;100.00;98588.44;1694262;84;21760;-81
2022/11/02 08:02:02;;;;;;;36.10;28.07;;;;;;;10.68;100.00;98590.94;1703945;84;21045;-78
2022/11/02 08:04:28;;;;;;;41.53;35.88;;;;;;;10.86;100.00;98592.34;1677275;84;21115;-81
2022/11/02 08:06:54;;;;;;;31.55;21.70;;;;;;;10.99;100.00;98589.64;1720191;81;21244;-81
2022/11/02 08:09:20;;;;;;;28.02;19.73;;;;;;;11.11;100.00;98590.22;1697030;82;21130;-79
2022/11/02 08:11:47;;;;;;;29.12;17.98;;;;;;;11.24;100.00;98588.87;1707324;82;21088;-81
2022/11/02 08:14:13;;;;;;;28.90;17.20;;;;;;;11.40;100.00;98586.44;1669092;83;20914;-81
2022/11/02 08:16:39;;;;;;;30.77;19.00;;;;;;;11.58;100.00;98583.17;1701774;83;20906;-78
2022/11/02 08:19:05;;;;;;;30.25;16.12;;;;;;;11.65;100.00;98583.45;1708080;82;20898;-82
2022/11/02 08:21:31;;;;;;;23.65;15.48;;;;;;;11.74;100.00;98583.17;1699948;82;21574;-78
2022/11/02 08:23:57;;;;;;;27.32;15.58;;;;;;;11.83;100.00;98589.16;1701006;82;20961;-81
2022/11/02 08:26:23;;;;;;;21.85;14.93;;;;;;;11.96;100.00;98570.66;1697980;84;20908;-79
2022/11/02 08:28:49;;;;;;;21.35;12.68;;;;;;;12.05;100.00;98575.82;1702479;82;20882;-81
2022/11/02 08:31:16;;;;;;;20.57;11.20;;;;;;;12.08;100.00;98566.56;1672312;85;21762;-81
2022/11/02 08:33:43;;;;;;;20.37;11.43;;;;;;;12.18;100.00;98560.83;1694173;82;21079;-81
2022/11/02 08:36:09;;;;;;;24.98;13.58;;;;;;;12.23;100.00;98561.63;1692564;82;20974;-81
2022/11/02 08:38:35;;;;;;;25.82;13.03;;;;;;;12.29;100.00;98565.12;1705259;82;21116;-78
2022/11/02 08:41:01;;;;;;;22.17;13.53;;;;;;;12.36;100.00;98554.78;1681719;83;21037;-79
2022/11/02 08:43:27;;;;;;;23.02;12.95;;;;;;;12.43;100.00;98553.94;1706319;82;21290;-78
2022/11/02 08:45:58;;;;;;;20.72;13.58;;;;;;;12.52;100.00;98549.55;1705231;84;20847;-81
2022/11/02 08:48:25;;;;;;;30.50;14.53;;;;;;;12.59;100.00;98551.42;1697167;84;21014;-81
2022/11/02 08:50:51;;;;;;;19.82;13.70;;;;;;;12.66;100.00;98551.93;1692028;84;20938;-79
2022/11/02 08:53:17;;;;;;;21.23;11.30;;;;;;;12.73;100.00;98555.67;1731818;81;20965;-81
2022/11/02 08:55:42;;;;;;;20.35;12.25;;;;;;;12.88;100.00;98560.22;1725569;80;21195;-81
2022/11/02 08:58:08;;;;;;;20.27;10.98;;;;;;;12.99;100.00;98555.00;1724045;81;20946;-79
2022/11/02 09:00:34;;;;;;;15.80;10.50;;;;;;;13.14;100.00;98560.87;1725270;80;20945;-79
2022/11/02 09:03:08;;;;;;;18.90;10.03;;;;;;;13.23;100.00;98557.84;1710285;80;20970;-81
2022/11/02 09:05:41;;;;;;;20.30;10.82;;;;;;;13.33;100.00;98561.02;1711039;82;21023;-81
2022/11/02 09:08:12;;;;;;;19.35;11.60;;;;;;;13.39;100.00;98548.45;1712495;81;21118;-81
2022/11/02 09:10:38;;;;;;;16.50;11.22;;;;;;;13.50;100.00;98546.45;1688820;80;21019;-78
2022/11/02 09:13:06;;;;;;;15.60;9.80;;;;;;;13.57;100.00;98536.05;1725875;80;20921;-81
2022/11/02 09:15:33;;;;;;;22.42;10.15;;;;;;;13.68;100.00;98544.95;1704397;81;21001;-79
2022/11/02 09:17:59;;;;;;;16.20;8.45;;;;;;;13.75;100.00;98538.59;1731654;81;21080;-81
2022/11/02 09:20:25;;;;;;;15.83;8.28;;;;;;;13.88;100.00;98535.20;1717793;81;21009;-79
2022/11/02 09:22:51;;;;;;;15.45;9.05;;;;;;;13.95;100.00;98541.12;1705461;82;20866;-81
2022/11/02 09:25:17;;;;;;;13.98;8.98;;;;;;;14.04;100.00;98538.58;1704553;84;20905;-81
2022/11/02 09:27:43;;;;;;;18.35;9.25;;;;;;;14.13;100.00;98535.48;1715232;82;21024;-81
2022/11/02 09:30:10;;;;;;;15.25;8.50;;;;;;;14.25;100.00;98541.88;1702136;82;21100;-81
2022/11/02 09:32:36;;;;;;;15.13;7.37;;;;;;;14.35;100.00;98537.66;1712615;82;21163;-81
2022/11/02 09:35:07;;;;;;;10.70;6.72;;;;;;;14.39;99.66;98544.98;1698948;81;20883;-79
2022/11/02 09:37:34;;;;;;;9.15;6.17;;;;;;;14.50;97.15;98542.95;1716655;82;21497;-81
2022/11/02 09:40:00;;;;;;;14.78;8.03;;;;;;;14.58;96.66;98539.58;1703967;82;21013;-81
2022/11/02 09:42:55;;;;;;;10.30;6.42;;;;;;;14.63;94.88;98540.08;1707502;82;20998;-79
2022/11/02 09:45:21;;;;;;;21.17;6.50;;;;;;;14.75;98.60;98538.27;1670728;82;21334;-81
2022/11/02 09:47:57;;;;;;;10.60;6.55;;;;;;;14.84;100.00;98537.31;1709395;82;20855;-79
2022/11/02 09:50:27;;;;;;;10.15;5.90;;;;;;;14.86;98.25;98538.37;1684822;82;20970;-81
2022/11/02 09:52:56;;;;;;;7.33;4.62;;;;;;;14.82;95.60;98540.89;1704435;82;21069;-79
2022/11/02 09:55:27;;;;;;;35.68;6.83;;;;;;;14.83;97.00;98537.05;1699489;82;21167;-78
2022/11/02 09:57:58;;;;;;;11.05;5.60;;;;;;;14.88;97.56;98535.63;1709611;82;22053;-81
2022/11/02 10:00:27;;;;;;;8.60;5.30;;;;;;;14.92;95.22;98533.11;1665505;84;21506;-81
2022/11/02 10:03:15;;;;;;;12.70;4.75;;;;;;;14.98;94.62;98542.04;1672667;83;21045;-79
2022/11/02 10:05:49;;;;;;;15.70;5.20;;;;;;;15.02;94.40;98538.97;1652407;85;21012;-81
2022/11/02 10:08:37;;;;;;;22.52;6.70;;;;;;;15.10;95.41;98539.11;1717970;81;21037;-81
2022/11/02 10:11:25;;;;;;;;;;;;;;;15.20;96.61;98538.94;1705114;82;21198;-82
2022/11/02 10:13:56;;;;;;;10.65;3.70;;;;;;;15.28;94.39;98533.92;1698871;82;20234;-79
2022/11/02 10:16:27;;;;;;;10.38;5.87;;;;;;;15.32;94.50;98535.77;1694382;83;21034;-81
2022/11/02 10:18:53;;;;;;;6.62;3.58;;;;;;;15.38;94.65;98537.84;1669068;84;21104;-79
2022/11/02 10:21:22;;;;;;;5.92;3.33;;;;;;;15.38;92.29;98539.21;1662836;85;21485;-79
2022/11/02 10:23:53;;;;;;;17.15;3.22;;;;;;;15.36;91.54;98537.34;1694820;82;21731;-81
2022/11/02 10:26:23;;;;;;;5.65;2.30;;;;;;;15.37;92.36;98528.84;1703282;84;20966;-79
2022/11/02 10:28:59;;;;;;;5.65;2.10;;;;;;;15.41;92.15;98525.79;1714303;82;21411;-81
2022/11/02 10:31:29;;;;;;;7.35;2.45;;;;;;;15.48;86.82;98524.85;1711271;82;21004;-79
2022/11/02 10:33:55;;;;;;;4.78;2.05;;;;;;;15.61;88.89;98530.11;1708189;82;21478;-79
2022/11/02 10:36:36;;;;;;;7.80;3.02;;;;;;;15.73;85.40;98525.00;1686792;82;21038;-81
2022/11/02 10:39:10;;;;;;;8.83;2.70;;;;;;;15.89;89.24;98515.13;1695219;82;20998;-81
2022/11/02 10:41:48;;;;;;;7.42;3.83;;;;;;;16.06;89.89;98509.34;1715460;82;21002;-79
2022/11/02 10:44:25;;;;;;;5.10;3.40;;;;;;;16.20;82.34;98513.42;1698396;82;21029;-79
2022/11/02 10:47:12;;;;;;;7.03;2.45;;;;;;;16.29;76.98;98517.06;1701478;84;21302;-82
2022/11/02 10:50:21;;;;;;;9.40;3.15;;;;;;;16.40;76.09;98512.19;1699807;84;21488;-81
2022/11/02 10:52:47;;;;;;;4.75;2.85;;;;;;;16.45;74.57;98514.83;1695914;84;21040;-81
2022/11/02 10:55:22;;;;;;;6.28;3.27;;;;;;;16.56;75.78;98519.52;1709009;82;20893;-81
2022/11/02 10:57:48;;;;;;;5.15;2.60;;;;;;;16.60;74.53;98508.22;1713457;82;21097;-78
2022/11/02 11:00:27;;;;;;;8.93;3.58;;;;;;;16.61;76.08;98506.55;1711214;82;20991;-79
2022/11/02 11:03:16;;;;;;;3.92;2.42;;;;;;;16.60;74.23;98508.22;1703197;82;21242;-81
2022/11/02 11:06:03;;;;;;;10.68;2.90;;;;;;;16.60;73.48;98504.12;1706294;82;21053;-81
2022/11/02 11:08:40;;;;;;;6.45;3.27;;;;;;;16.70;77.22;98506.66;1700400;82;22153;-79
2022/11/02 11:11:24;;;;;;;6.90;3.20;;;;;;;16.57;73.50;98506.08;1705081;82;21038;-79
2022/11/02 11:14:16;;;;;;;4.67;2.52;;;;;;;16.58;75.88;98502.26;1696191;84;21061;-79
2022/11/02 11:16:52;;;;;;;4.58;2.60;;;;;;;16.52;73.25;98513.05;1698219;84;21245;-79
2022/11/02 11:19:34;;;;;;;4.75;2.87;;;;;;;16.43;76.92;98514.33;1684652;82;21099;-79
2022/11/02 11:22:01;;;;;;;6.58;2.58;;;;;;;16.19;75.48;98515.91;1700582;81;21049;-81
2022/11/02 11:24:33;;;;;;;6.08;3.25;;;;;;;16.10;76.96;98510.09;1711852;82;21160;-79
2022/11/02 11:27:15;;;;;;;11.50;3.47;;;;;;;16.03;78.53;98510.48;1701646;82;20982;-81
2022/11/02 11:29:56;;;;;;;9.00;3.65;;;;;;;15.98;78.83;98510.58;1713569;81;21312;-81
2022/11/02 11:32:27;;;;;;;4.17;2.33;;;;;;;15.92;79.63;98503.61;1716376;82;21147;-80
2022/11/02 11:35:06;;;;;;;5.72;2.30;;;;;;;15.94;79.18;98500.01;1637183;85;21070;-81
2022/11/02 11:37:32;;;;;;;2.67;1.80;;;;;;;16.00;78.50;98498.25;1718357;81;21014;-79
2022/11/02 11:40:02;;;;;;;7.62;2.17;;;;;;;16.08;78.90;98502.20;1719448;82;20880;-78
2022/11/02 11:42:33;;;;;;;4.42;2.25;;;;;;;16.12;76.09;98501.83;1686430;84;21088;-80
2022/11/02 11:45:06;;;;;;;2.20;1.75;;;;;;;16.22;77.88;98502.98;1706892;82;21010;-79
2022/11/02 11:47:37;;;;;;;7.10;2.47;;;;;;;16.28;78.17;98501.78;1713943;82;21010;-79